createdAt,value
2023-02-27T00:00:19.449Z,2.49
2023-02-27T00:02:48.200Z,2.43
2023-02-27T00:05:15.604Z,2.42
2023-02-27T00:07:42.507Z,2.45
2023-02-27T00:10:11.025Z,2.48
2023-02-27T00:12:39.065Z,2.53
2023-02-27T00:15:11.408Z,2.47
2023-02-27T00:17:38.270Z,2.50
2023-02-27T00:20:06.498Z,2.47
2023-02-27T00:22:33.284Z,2.39
2023-02-27T00:24:59.947Z,2.48
2023-02-27T00:27:26.769Z,2.40
2023-02-27T00:29:53.488Z,2.39
2023-02-27T00:32:20.256Z,2.26
2023-02-27T00:34:47.396Z,2.33
2023-02-27T00:37:14.277Z,2.25
2023-02-27T00:39:40.976Z,2.29
2023-02-27T00:42:07.948Z,2.38
2023-02-27T00:44:34.655Z,2.33
2023-02-27T00:47:01.430Z,2.29
2023-02-27T00:49:28.052Z,2.20
2023-02-27T00:51:54.769Z,2.19
2023-02-27T00:54:21.427Z,2.27
2023-02-27T00:56:48.257Z,2.34
2023-02-27T00:59:15.200Z,2.31
2023-02-27T01:01:42.163Z,2.29
2023-02-27T01:04:08.834Z,2.21
2023-02-27T01:06:35.544Z,2.16
2023-02-27T01:09:02.393Z,2.15
2023-02-27T01:11:29.257Z,2.08
2023-02-27T01:13:56.156Z,2.01
2023-02-27T01:16:23.410Z,1.96
2023-02-27T01:18:51.342Z,1.93
2023-02-27T01:21:18.226Z,1.92
2023-02-27T01:23:45.185Z,1.97
2023-02-27T01:26:12.063Z,1.86
2023-02-27T01:28:38.830Z,1.71
2023-02-27T01:31:05.928Z,1.75
2023-02-27T01:33:32.670Z,1.75
2023-02-27T01:36:00.515Z,1.67
2023-02-27T01:38:27.420Z,1.64
2023-02-27T01:40:54.255Z,1.77
2023-02-27T01:43:22.483Z,1.65
2023-02-27T01:45:52.489Z,1.75
2023-02-27T01:48:29.252Z,1.80
2023-02-27T01:51:02.130Z,1.73
2023-02-27T01:53:32.713Z,1.87
2023-02-27T01:56:05.657Z,1.92
2023-02-27T01:58:32.466Z,2.00
2023-02-27T02:00:59.559Z,2.10
2023-02-27T02:03:46.627Z,2.11
2023-02-27T02:06:13.889Z,2.16
2023-02-27T02:08:45.809Z,2.20
2023-02-27T02:11:15.042Z,2.32
2023-02-27T02:13:42.107Z,2.36
2023-02-27T02:16:27.183Z,2.48
2023-02-27T02:18:53.848Z,2.41
2023-02-27T02:21:29.588Z,2.45
2023-02-27T02:24:28.700Z,2.56
2023-02-27T02:27:27.974Z,2.49
2023-02-27T02:30:09.662Z,2.41
2023-02-27T02:33:00.630Z,2.48
2023-02-27T02:36:02.977Z,2.38
2023-02-27T02:38:38.860Z,2.42
2023-02-27T02:41:20.305Z,2.42
2023-02-27T02:43:52.864Z,2.30
2023-02-27T02:46:36.486Z,2.37
2023-02-27T02:49:16.610Z,2.33
2023-02-27T02:52:09.373Z,2.43
2023-02-27T02:54:44.684Z,2.45
2023-02-27T02:57:27.784Z,2.29
2023-02-27T03:00:07.540Z,2.30
2023-02-27T03:02:41.704Z,2.25
2023-02-27T03:05:18.818Z,2.14
2023-02-27T03:07:57.528Z,2.18
2023-02-27T03:10:33.277Z,2.23
2023-02-27T03:13:31.151Z,2.40
2023-02-27T03:16:48.231Z,2.29
2023-02-27T03:19:44.987Z,2.34
2023-02-27T03:22:17.301Z,2.37
2023-02-27T03:24:57.336Z,2.36
2023-02-27T03:27:28.440Z,2.37
2023-02-27T03:30:02.889Z,2.27
2023-02-27T03:32:43.980Z,2.33
2023-02-27T03:35:12.715Z,2.39
2023-02-27T03:37:54.151Z,2.44
2023-02-27T03:40:49.372Z,2.41
2023-02-27T03:43:26.057Z,2.23
2023-02-27T03:46:07.348Z,2.30
2023-02-27T03:48:34.736Z,2.43
2023-02-27T03:51:01.618Z,2.34
2023-02-27T03:53:42.105Z,2.33
2023-02-27T03:56:10.800Z,2.39
2023-02-27T03:58:37.864Z,2.29
2023-02-27T04:01:04.862Z,2.35
2023-02-27T04:03:37.162Z,2.40
2023-02-27T04:06:24.926Z,2.37
2023-02-27T04:09:27.209Z,2.49
2023-02-27T04:11:59.732Z,2.48
2023-02-27T04:14:29.024Z,2.53
2023-02-27T04:17:25.156Z,2.57
2023-02-27T04:20:05.186Z,2.53
2023-02-27T04:23:01.715Z,2.49
2023-02-27T04:26:22.713Z,2.66
2023-02-27T04:29:04.555Z,2.66
2023-02-27T04:31:56.302Z,2.65
2023-02-27T04:34:27.574Z,2.56
2023-02-27T04:37:03.767Z,2.51
2023-02-27T04:39:37.107Z,2.50
2023-02-27T04:42:10.466Z,2.58
2023-02-27T04:44:38.535Z,2.58
2023-02-27T04:47:08.878Z,2.53
2023-02-27T04:49:45.100Z,2.64
2023-02-27T04:52:25.697Z,2.47
2023-02-27T04:55:18.161Z,2.64
2023-02-27T04:57:57.589Z,2.70
2023-02-27T05:00:27.268Z,2.62
2023-02-27T05:03:00.282Z,2.55
2023-02-27T05:05:32.073Z,2.70
2023-02-27T05:08:09.587Z,2.73
2023-02-27T05:10:49.692Z,2.69
2023-02-27T05:13:20.881Z,2.75
2023-02-27T05:16:33.091Z,2.70
2023-02-27T05:19:02.930Z,2.72
2023-02-27T05:21:42.191Z,2.63
2023-02-27T05:24:30.301Z,2.72
2023-02-27T05:27:03.053Z,2.80
2023-02-27T05:29:48.420Z,2.75
2023-02-27T05:32:21.222Z,2.72
2023-02-27T05:34:51.162Z,2.80
2023-02-27T05:37:28.685Z,2.82
2023-02-27T05:39:55.356Z,2.73
2023-02-27T05:42:31.547Z,2.83
2023-02-27T05:45:08.569Z,2.83
2023-02-27T05:47:40.760Z,2.86
2023-02-27T05:50:17.588Z,2.78
2023-02-27T05:52:47.429Z,2.84
2023-02-27T05:55:21.997Z,2.87
2023-02-27T05:57:54.079Z,2.90
2023-02-27T06:00:26.862Z,2.91
2023-02-27T06:02:54.300Z,2.91
2023-02-27T06:05:21.220Z,2.90
2023-02-27T06:07:47.941Z,2.94
2023-02-27T06:10:17.269Z,2.97
2023-02-27T06:12:44.298Z,3.09
2023-02-27T06:15:12.135Z,3.04
2023-02-27T06:17:39.185Z,3.13
2023-02-27T06:20:07.912Z,3.16
2023-02-27T06:22:35.428Z,3.14
2023-02-27T06:25:03.630Z,3.02
2023-02-27T06:27:30.337Z,3.09
2023-02-27T06:29:57.720Z,3.18
2023-02-27T06:32:25.862Z,3.02
2023-02-27T06:34:53.340Z,3.04
2023-02-27T06:37:21.714Z,3.08
2023-02-27T06:39:48.574Z,3.13
2023-02-27T06:42:15.508Z,3.06
2023-02-27T06:44:42.557Z,3.09
2023-02-27T06:47:09.370Z,3.13
2023-02-27T06:49:36.277Z,3.12
2023-02-27T06:52:03.134Z,3.09
2023-02-27T06:54:29.917Z,3.15
2023-02-27T06:56:56.596Z,3.18
2023-02-27T06:59:23.309Z,3.13
2023-02-27T07:01:50.131Z,3.16
2023-02-27T07:04:18.035Z,3.20
2023-02-27T07:07:36.065Z,3.16
2023-02-27T07:09:31.869Z,3.09
2023-02-27T07:11:58.583Z,3.11
2023-02-27T07:14:25.842Z,3.19
2023-02-27T07:16:55.250Z,3.11
2023-02-27T07:19:25.277Z,3.15
2023-02-27T07:21:52.000Z,3.14
2023-02-27T07:24:19.050Z,3.11
2023-02-27T07:26:45.791Z,3.10
2023-02-27T07:29:14.780Z,3.10
2023-02-27T07:31:41.616Z,3.18
2023-02-27T07:34:09.678Z,3.18
2023-02-27T07:36:36.372Z,3.22
2023-02-27T07:39:03.704Z,3.22
2023-02-27T07:41:31.275Z,3.27
2023-02-27T07:44:00.358Z,3.27
2023-02-27T07:46:27.935Z,3.23
2023-02-27T07:48:55.251Z,3.31
2023-02-27T07:51:22.545Z,3.30
2023-02-27T07:53:49.235Z,3.31
2023-02-27T07:56:15.991Z,3.23
2023-02-27T07:58:42.706Z,3.36
2023-02-27T08:01:09.421Z,3.31
2023-02-27T08:03:36.141Z,3.39
2023-02-27T08:06:02.873Z,3.41
2023-02-27T08:08:29.776Z,3.38
2023-02-27T08:10:56.622Z,3.40
2023-02-27T08:13:42.263Z,3.46
2023-02-27T08:16:10.300Z,3.59
2023-02-27T08:18:37.147Z,3.63
2023-02-27T08:21:05.121Z,3.50
2023-02-27T08:23:32.713Z,3.58
2023-02-27T08:25:59.443Z,3.53
2023-02-27T08:28:26.632Z,3.56
2023-02-27T08:30:53.879Z,3.60
2023-02-27T08:33:21.438Z,3.72
2023-02-27T08:35:48.485Z,3.70
2023-02-27T08:38:15.201Z,3.74
2023-02-27T08:40:41.907Z,3.77
2023-02-27T08:43:08.695Z,3.80
2023-02-27T08:45:35.475Z,3.72
2023-02-27T08:48:02.209Z,3.84
2023-02-27T08:50:28.952Z,3.86
2023-02-27T08:52:55.669Z,3.82
2023-02-27T08:55:22.377Z,3.83
2023-02-27T08:57:49.117Z,3.87
2023-02-27T09:00:16.580Z,3.86
2023-02-27T09:02:43.378Z,3.91
2023-02-27T09:05:10.092Z,3.90
2023-02-27T09:07:36.863Z,3.90
2023-02-27T09:10:04.023Z,3.93
2023-02-27T09:12:30.683Z,4.06
2023-02-27T09:14:57.361Z,4.04
2023-02-27T09:17:24.192Z,4.04
2023-02-27T09:19:51.426Z,4.09
2023-02-27T09:22:18.870Z,4.21
2023-02-27T09:24:45.886Z,4.22
2023-02-27T09:27:12.644Z,3.98
2023-02-27T09:29:39.498Z,4.16
2023-02-27T09:32:06.313Z,4.25
2023-02-27T09:34:33.100Z,4.24
2023-02-27T09:37:00.990Z,4.22
2023-02-27T09:39:29.219Z,4.21
2023-02-27T09:42:06.876Z,4.19
2023-02-27T09:44:47.185Z,4.26
2023-02-27T09:47:50.814Z,4.14
2023-02-27T09:50:40.695Z,4.37
2023-02-27T09:53:15.360Z,4.35
2023-02-27T09:55:44.235Z,4.44
2023-02-27T09:58:22.822Z,4.37
2023-02-27T10:00:57.664Z,4.51
2023-02-27T10:03:52.350Z,4.33
2023-02-27T10:06:25.455Z,4.54
2023-02-27T10:09:10.813Z,4.46
2023-02-27T10:11:47.153Z,4.54
2023-02-27T10:14:25.864Z,4.40
2023-02-27T10:16:54.512Z,4.37
2023-02-27T10:19:29.037Z,4.52
2023-02-27T10:21:59.200Z,4.65
2023-02-27T10:24:33.837Z,4.64
2023-02-27T10:27:05.665Z,4.71
2023-02-27T10:29:36.642Z,4.63
2023-02-27T10:32:10.544Z,4.77
2023-02-27T10:34:40.633Z,4.83
2023-02-27T10:37:08.923Z,4.89
2023-02-27T10:39:46.262Z,4.82
2023-02-27T10:42:15.985Z,4.86
2023-02-27T10:44:42.867Z,4.74
2023-02-27T10:47:23.919Z,4.81
2023-02-27T10:49:52.170Z,4.77
2023-02-27T10:52:19.324Z,4.80
2023-02-27T10:54:47.131Z,4.80
2023-02-27T10:57:21.721Z,4.74
2023-02-27T10:59:55.810Z,4.91
2023-02-27T11:02:26.468Z,4.86
2023-02-27T11:04:56.100Z,4.83
2023-02-27T11:07:38.008Z,4.98
2023-02-27T11:10:16.761Z,4.92
2023-02-27T11:13:09.309Z,5.12
2023-02-27T11:15:38.417Z,4.85
2023-02-27T11:18:29.252Z,5.13
2023-02-27T11:21:10.003Z,4.90
2023-02-27T11:23:37.000Z,4.96
2023-02-27T11:26:17.452Z,4.90
2023-02-27T11:28:44.269Z,4.87
2023-02-27T11:31:22.490Z,4.94
2023-02-27T11:33:53.237Z,5.07
2023-02-27T11:36:23.684Z,5.06
2023-02-27T11:38:55.336Z,5.05
2023-02-27T11:41:34.378Z,5.12
2023-02-27T11:44:03.343Z,5.17
2023-02-27T11:46:46.942Z,5.20
2023-02-27T11:49:28.467Z,5.15
2023-02-27T11:52:02.109Z,5.26
2023-02-27T11:54:51.084Z,5.30
2023-02-27T11:57:40.404Z,5.29
2023-02-27T12:00:21.477Z,5.68
2023-02-27T12:02:50.942Z,5.62
2023-02-27T12:05:21.436Z,5.72
2023-02-27T12:08:00.518Z,5.57
2023-02-27T12:10:37.587Z,5.58
2023-02-27T12:13:13.877Z,5.67
2023-02-27T12:15:40.495Z,5.67
2023-02-27T12:18:21.513Z,5.71
2023-02-27T12:20:59.111Z,5.82
2023-02-27T12:23:50.222Z,5.97
2023-02-27T12:26:27.185Z,5.98
2023-02-27T12:29:00.272Z,5.97
2023-02-27T12:31:42.168Z,5.80
2023-02-27T12:34:29.563Z,5.98
2023-02-27T12:37:05.650Z,6.10
2023-02-27T12:39:33.503Z,6.13
2023-02-27T12:42:09.119Z,6.16
2023-02-27T12:44:47.663Z,6.09
2023-02-27T12:47:44.514Z,6.05
2023-02-27T12:50:19.605Z,6.06
2023-02-27T12:52:58.299Z,6.17
2023-02-27T12:55:29.426Z,6.26
2023-02-27T12:58:28.611Z,6.34
2023-02-27T13:01:02.805Z,6.08
2023-02-27T13:03:50.017Z,6.17
2023-02-27T13:06:25.900Z,6.27
2023-02-27T13:09:33.738Z,6.17
2023-02-27T13:12:36.398Z,6.18
2023-02-27T13:15:11.924Z,6.03
2023-02-27T13:17:53.961Z,6.13
2023-02-27T13:20:40.389Z,6.14
2023-02-27T13:23:25.517Z,6.06
2023-02-27T13:25:54.986Z,6.04
2023-02-27T13:28:29.008Z,6.13
2023-02-27T13:30:58.681Z,6.11
2023-02-27T13:33:54.497Z,6.13
2023-02-27T13:36:24.621Z,6.20
2023-02-27T13:38:54.298Z,6.25
2023-02-27T13:41:21.001Z,6.09
2023-02-27T13:43:55.647Z,6.23
2023-02-27T13:46:24.978Z,6.14
2023-02-27T13:49:20.001Z,6.09
2023-02-27T13:51:56.793Z,6.27
2023-02-27T13:54:33.405Z,6.26
2023-02-27T13:57:16.896Z,6.17
2023-02-27T13:59:53.176Z,6.32
2023-02-27T14:02:46.594Z,6.34
2023-02-27T14:05:31.009Z,6.39
2023-02-27T14:08:25.695Z,6.30
2023-02-27T14:10:55.206Z,6.33
2023-02-27T14:13:57.889Z,6.31
2023-02-27T14:16:44.235Z,6.31
2023-02-27T14:19:22.409Z,6.40
2023-02-27T14:21:59.080Z,6.24
2023-02-27T14:24:33.696Z,6.42
2023-02-27T14:27:02.259Z,6.34
2023-02-27T14:29:33.499Z,6.33
2023-02-27T14:32:04.293Z,6.37
2023-02-27T14:34:31.451Z,6.30
2023-02-27T14:37:01.796Z,6.22
2023-02-27T14:39:36.664Z,6.32
2023-02-27T14:42:41.331Z,6.28
2023-02-27T14:45:28.767Z,6.22
2023-02-27T14:47:56.888Z,6.15
2023-02-27T14:50:34.067Z,6.16
2023-02-27T14:53:02.092Z,6.18
2023-02-27T14:55:33.777Z,6.12
2023-02-27T14:58:08.412Z,6.18
2023-02-27T15:00:41.870Z,6.22
2023-02-27T15:03:17.940Z,6.25
2023-02-27T15:05:46.105Z,6.13
2023-02-27T15:08:21.188Z,6.21
2023-02-27T15:10:48.499Z,6.13
2023-02-27T15:13:28.480Z,6.15
2023-02-27T15:16:18.514Z,6.25
2023-02-27T15:18:50.955Z,6.20
2023-02-27T15:21:20.237Z,6.24
2023-02-27T15:24:09.276Z,6.11
2023-02-27T15:26:40.064Z,6.10
2023-02-27T15:29:08.683Z,6.14
2023-02-27T15:31:35.799Z,6.16
2023-02-27T15:34:03.906Z,6.17
2023-02-27T15:36:34.533Z,6.12
2023-02-27T15:39:06.987Z,6.16
2023-02-27T15:41:34.780Z,6.15
2023-02-27T15:44:03.093Z,6.23
2023-02-27T15:46:30.692Z,6.19
2023-02-27T15:48:57.947Z,6.09
2023-02-27T15:51:26.882Z,6.14
2023-02-27T15:53:55.799Z,6.16
2023-02-27T15:56:28.595Z,6.23
2023-02-27T15:59:00.196Z,6.38
2023-02-27T16:01:30.677Z,6.27
2023-02-27T16:04:00.181Z,6.21
2023-02-27T16:06:40.071Z,6.28
2023-02-27T16:09:20.982Z,6.26
2023-02-27T16:11:47.716Z,6.24
2023-02-27T16:14:55.775Z,6.22
2023-02-27T16:17:31.606Z,6.19
2023-02-27T16:20:02.030Z,6.07
2023-02-27T16:22:30.540Z,6.15
2023-02-27T16:25:09.058Z,6.04
2023-02-27T16:27:36.310Z,6.07
2023-02-27T16:30:11.205Z,6.06
2023-02-27T16:32:42.510Z,6.06
2023-02-27T16:35:16.995Z,6.17
2023-02-27T16:37:45.247Z,6.07
2023-02-27T16:40:19.977Z,6.07
2023-02-27T16:42:47.220Z,6.08
2023-02-27T16:45:17.091Z,6.06
2023-02-27T16:47:44.704Z,6.09
2023-02-27T16:50:20.588Z,6.00
2023-02-27T16:52:47.463Z,6.04
2023-02-27T16:55:14.239Z,6.02
2023-02-27T16:57:41.117Z,6.02
2023-02-27T17:00:10.800Z,6.02
2023-02-27T17:02:38.794Z,5.97
2023-02-27T17:05:06.142Z,6.00
2023-02-27T17:07:32.936Z,5.92
2023-02-27T17:10:00.414Z,5.89
2023-02-27T17:12:27.636Z,5.94
2023-02-27T17:14:54.385Z,5.91
2023-02-27T17:17:21.033Z,5.96
2023-02-27T17:19:47.856Z,6.02
2023-02-27T17:22:15.301Z,5.96
2023-02-27T17:24:42.061Z,5.96
2023-02-27T17:27:09.502Z,5.87
2023-02-27T17:29:38.529Z,5.95
2023-02-27T17:32:05.755Z,5.92
2023-02-27T17:34:32.640Z,5.96
2023-02-27T17:36:59.342Z,5.89
2023-02-27T17:39:26.088Z,5.87
2023-02-27T17:41:54.371Z,5.80
2023-02-27T17:44:21.336Z,5.82
2023-02-27T17:46:48.201Z,5.87
2023-02-27T17:49:15.218Z,5.83
2023-02-27T17:51:42.041Z,5.83
2023-02-27T17:54:09.008Z,5.87
2023-02-27T17:56:37.005Z,5.88
2023-02-27T17:59:04.560Z,5.84
2023-02-27T18:01:31.502Z,5.90
2023-02-27T18:03:58.454Z,5.78
2023-02-27T18:06:25.965Z,5.85
2023-02-27T18:08:53.000Z,5.92
2023-02-27T18:11:21.588Z,5.81
2023-02-27T18:13:49.078Z,5.83
2023-02-27T18:16:16.174Z,5.88
2023-02-27T18:18:43.231Z,5.86
2023-02-27T18:21:20.555Z,5.80
2023-02-27T18:23:48.093Z,5.79
2023-02-27T18:26:28.518Z,5.82
2023-02-27T18:29:00.256Z,5.87
2023-02-27T18:31:35.791Z,5.88
2023-02-27T18:34:03.049Z,5.83
2023-02-27T18:36:31.139Z,5.84
2023-02-27T18:38:59.113Z,5.79
2023-02-27T18:41:25.986Z,5.73
2023-02-27T18:43:52.822Z,5.79
2023-02-27T18:46:20.264Z,5.73
2023-02-27T18:48:47.458Z,5.79
2023-02-27T18:51:15.721Z,5.84
2023-02-27T18:53:44.899Z,5.71
2023-02-27T18:56:13.406Z,5.74
2023-02-27T18:58:40.380Z,5.65
2023-02-27T19:01:07.650Z,5.76
2023-02-27T19:03:36.111Z,5.65
2023-02-27T19:06:03.489Z,5.65
2023-02-27T19:08:30.492Z,5.58
2023-02-27T19:10:58.657Z,5.53
2023-02-27T19:13:26.248Z,5.52
2023-02-27T19:15:53.840Z,5.57
2023-02-27T19:18:20.686Z,5.59
2023-02-27T19:20:47.702Z,5.55
2023-02-27T19:23:14.329Z,5.55
2023-02-27T19:25:42.058Z,5.58
2023-02-27T19:28:11.033Z,5.58
2023-02-27T19:30:39.050Z,5.60
2023-02-27T19:33:05.814Z,5.63
2023-02-27T19:35:32.537Z,5.56
2023-02-27T19:37:59.330Z,5.62
2023-02-27T19:40:26.522Z,5.67
2023-02-27T19:42:53.246Z,5.56
2023-02-27T19:45:20.091Z,5.55
2023-02-27T19:47:46.847Z,5.58
2023-02-27T19:50:13.964Z,5.54
2023-02-27T19:52:40.877Z,5.50
2023-02-27T19:55:08.058Z,5.47
2023-02-27T19:57:35.625Z,5.47
2023-02-27T20:00:06.921Z,5.46
2023-02-27T20:02:42.119Z,5.51
2023-02-27T20:05:09.443Z,5.49
2023-02-27T20:07:36.199Z,5.51
2023-02-27T20:10:03.719Z,5.49
2023-02-27T20:12:30.532Z,5.51
2023-02-27T20:14:57.320Z,5.52
2023-02-27T20:17:24.058Z,5.49
2023-02-27T20:19:51.027Z,5.47
2023-02-27T20:22:17.795Z,5.51
2023-02-27T20:24:44.784Z,5.51
2023-02-27T20:27:12.147Z,5.48
2023-02-27T20:29:39.110Z,5.46
2023-02-27T20:32:06.093Z,5.49
2023-02-27T20:34:32.935Z,5.53
2023-02-27T20:37:00.385Z,5.49
2023-02-27T20:39:28.561Z,5.47
2023-02-27T20:41:55.665Z,5.50
2023-02-27T20:44:22.340Z,5.46
2023-02-27T20:46:49.645Z,5.41
2023-02-27T20:49:16.901Z,5.42
2023-02-27T20:51:44.511Z,5.43
2023-02-27T20:54:15.385Z,5.41
2023-02-27T20:56:43.309Z,5.42
2023-02-27T20:59:13.989Z,5.42
2023-02-27T21:01:42.075Z,5.41
2023-02-27T21:04:09.607Z,5.46
2023-02-27T21:06:36.375Z,5.44
2023-02-27T21:09:05.969Z,5.42
2023-02-27T21:11:33.378Z,5.36
2023-02-27T21:14:05.290Z,5.42
2023-02-27T21:16:33.004Z,5.32
2023-02-27T21:18:59.762Z,5.35
2023-02-27T21:21:32.229Z,5.38
2023-02-27T21:23:59.630Z,5.35
2023-02-27T21:26:30.430Z,5.31
2023-02-27T21:29:00.414Z,5.30
2023-02-27T21:31:30.163Z,5.35
2023-02-27T21:33:59.336Z,5.31
2023-02-27T21:36:34.641Z,5.32
2023-02-27T21:39:04.941Z,5.42
2023-02-27T21:41:32.185Z,5.44
2023-02-27T21:44:03.836Z,5.48
2023-02-27T21:46:33.867Z,5.49
2023-02-27T21:49:00.740Z,5.45
2023-02-27T21:51:39.590Z,5.31
2023-02-27T21:54:11.569Z,5.31
2023-02-27T21:56:41.867Z,5.43
2023-02-27T21:59:09.252Z,5.35
2023-02-27T22:01:36.485Z,5.37
2023-02-27T22:04:04.163Z,5.41
2023-02-27T22:06:33.046Z,5.43
2023-02-27T22:09:06.315Z,5.37
2023-02-27T22:11:34.873Z,5.41
2023-02-27T22:14:09.638Z,5.45
2023-02-27T22:16:43.622Z,5.39
2023-02-27T22:19:13.225Z,5.36
2023-02-27T22:21:43.908Z,5.31
2023-02-27T22:24:11.414Z,5.32
2023-02-27T22:26:42.768Z,5.39
2023-02-27T22:29:09.342Z,5.39
2023-02-27T22:31:38.293Z,5.38
2023-02-27T22:34:18.626Z,5.34
2023-02-27T22:36:48.673Z,5.29
2023-02-27T22:39:15.364Z,5.33
2023-02-27T22:41:42.570Z,5.35
2023-02-27T22:44:14.144Z,5.32
2023-02-27T22:46:47.251Z,5.33
2023-02-27T22:49:20.163Z,5.38
2023-02-27T22:51:50.840Z,5.35
2023-02-27T22:54:20.156Z,5.31
2023-02-27T22:56:49.792Z,5.39
2023-02-27T22:59:16.749Z,5.42
2023-02-27T23:01:43.668Z,5.42
2023-02-27T23:04:11.495Z,5.41
2023-02-27T23:06:40.431Z,5.44
2023-02-27T23:09:11.453Z,5.55
2023-02-27T23:11:38.392Z,5.46
2023-02-27T23:14:05.213Z,5.45
2023-02-27T23:16:32.026Z,5.42
2023-02-27T23:19:00.070Z,5.37
2023-02-27T23:21:34.718Z,5.25
2023-02-27T23:24:06.668Z,5.32
2023-02-27T23:26:38.468Z,5.39
2023-02-27T23:29:05.936Z,5.33
2023-02-27T23:31:35.089Z,5.36
2023-02-27T23:34:02.738Z,5.36
2023-02-27T23:36:29.547Z,5.26
2023-02-27T23:38:58.870Z,5.38
2023-02-27T23:41:25.881Z,5.40
2023-02-27T23:43:52.987Z,5.39
2023-02-27T23:46:20.625Z,5.38
2023-02-27T23:48:48.404Z,5.35
2023-02-27T23:51:16.071Z,5.44
2023-02-27T23:53:43.156Z,5.40
2023-02-27T23:56:13.188Z,5.39
2023-02-27T23:58:39.910Z,5.24
